createdAt,value
2018-11-25T00:01:42.451Z,71.30
2018-11-25T00:04:09.376Z,72.60
2018-11-25T00:06:36.299Z,70.77
2018-11-25T00:09:04.923Z,77.97
2018-11-25T00:11:31.929Z,67.97
2018-11-25T00:13:58.825Z,75.50
2018-11-25T00:16:25.763Z,73.80
2018-11-25T00:18:52.818Z,76.50
2018-11-25T00:21:19.790Z,76.57
2018-11-25T00:23:46.697Z,74.73
2018-11-25T00:26:13.717Z,79.43
2018-11-25T00:28:40.747Z,74.03
2018-11-25T00:31:09.649Z,83.30
2018-11-25T00:33:34.746Z,81.33
2018-11-25T00:36:01.724Z,73.30
2018-11-25T00:38:28.686Z,71.90
2018-11-25T00:40:55.624Z,74.80
2018-11-25T00:43:22.541Z,74.00
2018-11-25T00:45:49.477Z,76.00
2018-11-25T00:48:16.466Z,68.40
2018-11-25T00:50:43.448Z,73.87
2018-11-25T00:53:10.348Z,73.83
2018-11-25T00:55:37.267Z,74.23
2018-11-25T00:58:04.249Z,72.87
2018-11-25T01:00:31.183Z,76.40
2018-11-25T01:02:58.131Z,77.60
2018-11-25T01:05:25.054Z,76.10
2018-11-25T01:07:52.017Z,74.93
2018-11-25T01:10:18.984Z,72.27
2018-11-25T01:12:46.016Z,73.03
2018-11-25T01:15:14.714Z,70.43
2018-11-25T01:17:41.710Z,63.90
2018-11-25T01:20:10.605Z,65.77
2018-11-25T01:22:37.585Z,63.93
2018-11-25T01:25:05.430Z,64.77
2018-11-25T01:27:32.462Z,63.33
2018-11-25T01:29:59.487Z,66.30
2018-11-25T01:32:26.491Z,62.23
2018-11-25T01:35:00.864Z,71.27
2018-11-25T01:37:20.487Z,71.70
2018-11-25T01:39:48.151Z,57.00
2018-11-25T01:42:15.072Z,62.10
2018-11-25T01:44:42.024Z,65.63
2018-11-25T01:47:10.028Z,64.83
2018-11-25T01:49:36.998Z,69.63
2018-11-25T01:52:04.146Z,64.53
2018-11-25T01:54:31.089Z,67.60
2018-11-25T01:56:58.099Z,70.33
2018-11-25T01:59:25.090Z,67.57
2018-11-25T02:01:52.195Z,76.00
2018-11-25T02:04:19.216Z,70.43
2018-11-25T02:06:46.187Z,75.70
2018-11-25T02:09:13.138Z,72.33
2018-11-25T02:11:40.094Z,66.40
2018-11-25T02:14:07.067Z,71.67
2018-11-25T02:21:29.246Z,69.47
2018-11-25T02:23:56.456Z,69.10
2018-11-25T02:26:23.493Z,64.50
2018-11-25T02:28:50.473Z,59.43
2018-11-25T02:31:17.426Z,65.20
2018-11-25T02:33:44.368Z,64.03
2018-11-25T02:36:11.342Z,69.53
2018-11-25T02:38:38.336Z,65.07
2018-11-25T02:41:05.298Z,67.03
2018-11-25T02:43:32.208Z,66.73
2018-11-25T02:45:59.233Z,62.27
2018-11-25T02:48:26.198Z,66.03
2018-11-25T02:50:53.228Z,64.53
2018-11-25T02:53:20.194Z,65.07
2018-11-25T02:55:47.287Z,68.93
2018-11-25T03:03:09.016Z,62.37
2018-11-25T03:05:36.051Z,59.63
2018-11-25T03:08:03.124Z,65.90
2018-11-25T03:10:30.149Z,65.70
2018-11-25T03:12:57.125Z,69.73
2018-11-25T03:15:24.153Z,67.53
2018-11-25T03:17:51.207Z,64.23
2018-11-25T03:20:18.276Z,65.53
2018-11-25T03:22:45.331Z,74.57
2018-11-25T03:25:18.516Z,64.20
2018-11-25T03:27:45.847Z,65.20
2018-11-25T03:30:14.616Z,69.43
2018-11-25T03:32:42.478Z,59.53
2018-11-25T03:35:10.409Z,63.03
2018-11-25T03:37:37.396Z,58.73
2018-11-25T03:40:06.311Z,64.17
2018-11-25T03:42:33.250Z,59.23
2018-11-25T03:49:55.127Z,57.07
2018-11-25T03:52:22.161Z,62.37
2018-11-25T03:54:49.131Z,56.87
2018-11-25T03:57:16.113Z,60.93
2018-11-25T03:59:43.067Z,57.87
2018-11-25T04:02:10.008Z,58.40
2018-11-25T04:04:36.993Z,63.67
2018-11-25T04:07:04.067Z,60.97
2018-11-25T04:09:31.152Z,63.93
2018-11-25T04:11:58.082Z,58.47
2018-11-25T04:14:25.004Z,59.33
2018-11-25T04:16:52.008Z,56.50
2018-11-25T04:19:18.952Z,58.13
2018-11-25T04:21:45.960Z,58.17
2018-11-25T04:24:12.876Z,60.03
2018-11-25T04:26:39.870Z,55.30
2018-11-25T04:29:06.830Z,70.93
2018-11-25T04:31:33.794Z,57.10
2018-11-25T04:34:00.737Z,59.80
2018-11-25T04:36:27.669Z,62.67
2018-11-25T04:38:54.722Z,62.47
2018-11-25T04:41:21.682Z,68.77
2018-11-25T04:43:48.806Z,62.47
2018-11-25T04:46:15.885Z,66.73
2018-11-25T04:48:42.846Z,65.90
2018-11-25T04:51:09.777Z,59.07
2018-11-25T04:53:36.758Z,55.47
2018-11-25T04:56:04.065Z,65.90
2018-11-25T04:58:31.118Z,55.43
2018-11-25T05:00:58.064Z,60.07
2018-11-25T05:03:25.082Z,60.17
2018-11-25T05:05:52.136Z,61.33
2018-11-25T05:13:14.100Z,55.57
2018-11-25T05:15:41.066Z,60.43
2018-11-25T05:18:08.062Z,57.87
2018-11-25T05:20:35.025Z,58.73
2018-11-25T05:23:02.104Z,51.37
2018-11-25T05:25:29.159Z,55.37
2018-11-25T05:27:56.204Z,55.80
2018-11-25T05:30:23.159Z,58.57
2018-11-25T05:32:50.255Z,57.07
2018-11-25T05:35:18.865Z,55.30
2018-11-25T05:37:45.896Z,53.30
2018-11-25T05:40:13.677Z,50.33
2018-11-25T05:42:40.722Z,50.90
2018-11-25T05:45:10.892Z,54.87
2018-11-25T05:47:37.854Z,53.47
2018-11-25T05:50:07.233Z,57.03
2018-11-25T05:52:34.231Z,54.10
2018-11-25T05:55:01.185Z,55.27
2018-11-25T05:57:28.162Z,61.43
2018-11-25T05:59:55.241Z,58.40
2018-11-25T06:02:22.240Z,54.53
2018-11-25T06:04:49.175Z,52.50
2018-11-25T06:07:16.096Z,58.27
2018-11-25T06:09:43.060Z,52.40
2018-11-25T06:12:09.999Z,57.50
2018-11-25T06:14:36.905Z,56.50
2018-11-25T06:17:03.992Z,56.97
2018-11-25T06:19:31.009Z,61.63
2018-11-25T06:21:58.097Z,52.47
2018-11-25T06:24:25.128Z,52.80
2018-11-25T06:26:52.055Z,64.70
2018-11-25T06:29:18.988Z,56.03
2018-11-25T06:31:45.993Z,59.90
2018-11-25T06:34:12.949Z,54.40
2018-11-25T06:36:39.941Z,59.43
2018-11-25T06:39:08.204Z,62.93
2018-11-25T06:41:35.223Z,61.13
2018-11-25T06:44:02.423Z,66.33
2018-11-25T06:46:29.488Z,68.67
2018-11-25T06:48:56.560Z,63.97
2018-11-25T06:51:23.586Z,69.97
2018-11-25T06:53:50.554Z,76.33
2018-11-25T06:56:17.547Z,75.53
2018-11-25T06:58:44.524Z,65.17
2018-11-25T07:01:11.572Z,69.33
2018-11-25T07:03:38.530Z,72.10
2018-11-25T07:06:05.497Z,78.50
2018-11-25T07:08:32.492Z,80.13
2018-11-25T07:10:59.491Z,89.00
2018-11-25T07:13:26.465Z,76.63
2018-11-25T07:15:53.391Z,86.70
2018-11-25T07:18:20.373Z,76.27
2018-11-25T07:20:47.516Z,74.17
2018-11-25T07:23:14.536Z,70.83
2018-11-25T07:25:41.535Z,78.33
2018-11-25T07:28:18.563Z,74.27
2018-11-25T07:30:35.575Z,71.93
2018-11-25T07:33:02.512Z,68.53
2018-11-25T07:35:29.445Z,66.00
2018-11-25T07:37:56.432Z,71.43
2018-11-25T07:40:24.139Z,68.83
2018-11-25T07:42:51.106Z,62.77
2018-11-25T07:45:19.148Z,67.83
2018-11-25T07:47:46.133Z,64.67
2018-11-25T07:50:13.245Z,67.00
2018-11-25T07:52:40.882Z,61.73
2018-11-25T07:55:13.738Z,69.50
2018-11-25T07:57:40.741Z,71.50
2018-11-25T08:00:12.935Z,74.83
2018-11-25T08:02:41.593Z,74.53
2018-11-25T08:05:08.189Z,64.23
2018-11-25T08:07:35.235Z,67.57
2018-11-25T08:10:02.365Z,71.93
2018-11-25T08:12:29.351Z,70.77
2018-11-25T08:14:56.346Z,74.23
2018-11-25T08:17:23.431Z,69.43
2018-11-25T08:19:50.482Z,71.97
2018-11-25T08:22:17.480Z,69.87
2018-11-25T08:24:44.779Z,78.53
2018-11-25T08:27:11.786Z,70.70
2018-11-25T08:29:38.831Z,62.87
2018-11-25T08:32:05.866Z,70.53
2018-11-25T08:34:33.395Z,76.93
2018-11-25T08:37:00.459Z,76.97
2018-11-25T08:39:28.410Z,77.33
2018-11-25T08:41:54.404Z,74.00
2018-11-25T08:44:21.322Z,69.33
2018-11-25T08:46:48.332Z,70.13
2018-11-25T08:49:15.353Z,72.00
2018-11-25T08:51:42.299Z,69.90
2018-11-25T08:54:09.316Z,65.03
2018-11-25T08:56:36.233Z,75.00
2018-11-25T08:59:03.934Z,67.80
2018-11-25T09:01:30.890Z,69.47
2018-11-25T09:03:57.887Z,66.83
2018-11-25T09:06:25.763Z,62.53
2018-11-25T09:08:52.685Z,65.63
2018-11-25T09:11:19.661Z,65.47
2018-11-25T09:13:46.582Z,62.80
2018-11-25T09:16:13.518Z,62.70
2018-11-25T09:18:40.542Z,79.70
2018-11-25T09:21:07.565Z,68.13
2018-11-25T09:23:34.727Z,60.63
2018-11-25T09:26:01.644Z,60.67
2018-11-25T09:28:28.679Z,59.83
2018-11-25T09:30:55.618Z,64.23
2018-11-25T09:33:22.524Z,58.37
2018-11-25T09:35:49.535Z,57.37
2018-11-25T09:38:16.568Z,64.40
2018-11-25T09:40:44.732Z,62.70
2018-11-25T09:43:10.462Z,55.53
2018-11-25T09:45:37.389Z,57.67
2018-11-25T09:48:04.324Z,59.27
2018-11-25T09:50:31.251Z,55.87
2018-11-25T09:52:58.924Z,62.13
2018-11-25T09:55:25.891Z,57.40
2018-11-25T09:57:55.968Z,58.67
2018-11-25T10:00:24.110Z,50.13
2018-11-25T10:02:51.094Z,56.07
2018-11-25T10:05:18.093Z,50.30
2018-11-25T10:07:45.544Z,56.87
2018-11-25T10:10:13.660Z,49.93
2018-11-25T10:12:40.690Z,64.13
2018-11-25T10:15:08.899Z,54.90
2018-11-25T10:17:35.906Z,62.90
2018-11-25T10:20:12.644Z,67.30
2018-11-25T10:22:39.614Z,58.67
2018-11-25T10:25:10.136Z,56.93
2018-11-25T10:27:37.105Z,52.93
2018-11-25T10:30:09.113Z,54.07
2018-11-25T10:32:36.041Z,55.30
2018-11-25T10:35:03.021Z,59.77
2018-11-25T10:37:29.981Z,52.20
2018-11-25T10:39:56.991Z,50.03
2018-11-25T10:42:23.973Z,55.23
2018-11-25T10:44:50.948Z,52.07
2018-11-25T10:47:17.921Z,54.73
2018-11-25T10:49:45.058Z,58.83
2018-11-25T10:52:11.984Z,53.50
2018-11-25T10:54:38.913Z,55.43
2018-11-25T10:57:06.323Z,59.77
2018-11-25T10:59:33.482Z,55.23
2018-11-25T11:02:06.084Z,61.23
2018-11-25T11:04:38.870Z,59.10
2018-11-25T11:07:11.568Z,62.83
2018-11-25T11:09:38.597Z,61.93
2018-11-25T11:12:05.655Z,69.00
2018-11-25T11:14:32.607Z,69.53
2018-11-25T11:16:59.602Z,65.63
2018-11-25T11:19:26.594Z,53.50
2018-11-25T11:21:53.570Z,60.37
2018-11-25T11:24:20.561Z,60.63
2018-11-25T11:26:48.697Z,52.87
2018-11-25T11:29:14.555Z,57.50
2018-11-25T11:31:42.277Z,55.37
2018-11-25T11:34:09.256Z,52.93
2018-11-25T11:36:36.671Z,68.90
2018-11-25T11:39:06.430Z,57.30
2018-11-25T11:41:33.426Z,60.67
2018-11-25T11:44:00.383Z,48.43
2018-11-25T11:46:27.359Z,56.80
2018-11-25T11:48:54.316Z,60.00
2018-11-25T11:51:25.553Z,54.27
2018-11-25T11:53:48.286Z,53.93
2018-11-25T11:56:15.742Z,53.20
2018-11-25T11:58:42.717Z,50.67
2018-11-25T12:01:09.634Z,53.90
2018-11-25T12:03:36.566Z,55.10
2018-11-25T12:06:03.545Z,55.00
2018-11-25T12:08:30.649Z,49.90
2018-11-25T12:10:57.608Z,55.17
2018-11-25T12:13:24.584Z,57.13
2018-11-25T12:15:51.508Z,51.50
2018-11-25T12:18:18.467Z,54.63
2018-11-25T12:20:45.487Z,53.23
2018-11-25T12:23:12.496Z,55.53
2018-11-25T12:25:39.451Z,55.17
2018-11-25T12:28:06.659Z,56.67
2018-11-25T12:30:33.639Z,48.40
2018-11-25T12:33:00.654Z,51.83
2018-11-25T12:35:27.604Z,50.63
2018-11-25T12:37:54.580Z,48.77
2018-11-25T12:40:22.242Z,46.30
2018-11-25T12:42:52.614Z,44.93
2018-11-25T12:45:19.613Z,51.10
2018-11-25T12:47:46.599Z,47.40
2018-11-25T12:50:15.888Z,54.37
2018-11-25T12:52:42.897Z,44.90
2018-11-25T12:55:12.354Z,50.87
2018-11-25T12:57:39.368Z,50.03
2018-11-25T13:00:26.618Z,50.13
2018-11-25T13:02:53.871Z,51.97
2018-11-25T13:05:21.174Z,53.20
2018-11-25T13:07:48.459Z,60.10
2018-11-25T13:10:15.850Z,64.70
2018-11-25T13:12:43.129Z,55.23
2018-11-25T13:15:10.181Z,72.23
2018-11-25T13:17:37.266Z,64.40
2018-11-25T13:20:07.575Z,61.63
2018-11-25T13:22:35.176Z,69.27
2018-11-25T13:25:05.675Z,55.60
2018-11-25T13:27:33.919Z,61.57
2018-11-25T13:30:01.289Z,61.70
2018-11-25T13:32:28.716Z,59.80
2018-11-25T13:34:55.708Z,58.13
2018-11-25T13:37:23.055Z,63.80
2018-11-25T13:39:50.529Z,57.50
2018-11-25T13:42:18.154Z,64.50
2018-11-25T13:44:44.882Z,60.90
2018-11-25T13:47:12.636Z,59.63
2018-11-25T13:49:40.402Z,69.63
2018-11-25T13:52:07.949Z,62.10
2018-11-25T13:54:35.806Z,67.67
2018-11-25T13:57:03.210Z,63.53
2018-11-25T13:59:30.589Z,61.83
2018-11-25T14:01:57.628Z,69.00
2018-11-25T14:04:24.833Z,72.77
2018-11-25T14:06:51.856Z,65.07
2018-11-25T14:09:18.801Z,71.90
2018-11-25T14:11:45.824Z,64.57
2018-11-25T14:14:12.828Z,66.07
2018-11-25T14:16:40.019Z,65.60
2018-11-25T14:19:06.984Z,71.10
2018-11-25T14:21:33.988Z,70.60
2018-11-25T14:24:01.026Z,70.03
2018-11-25T14:26:31.684Z,69.63
2018-11-25T14:28:58.652Z,64.73
2018-11-25T14:31:25.600Z,68.00
2018-11-25T14:33:52.698Z,68.70
2018-11-25T14:36:19.664Z,86.00
2018-11-25T14:38:46.629Z,85.70
2018-11-25T14:41:13.595Z,88.13
2018-11-25T14:43:59.520Z,91.37
2018-11-25T14:46:26.543Z,83.20
2018-11-25T14:48:53.529Z,84.13
2018-11-25T14:51:20.498Z,85.57
2018-11-25T14:53:48.493Z,84.00
2018-11-25T14:56:15.688Z,83.90
2018-11-25T14:58:43.319Z,87.03
2018-11-25T15:01:10.602Z,84.90
2018-11-25T15:03:37.609Z,96.67
2018-11-25T15:06:04.778Z,86.10
2018-11-25T15:08:31.762Z,83.47
2018-11-25T15:10:58.916Z,83.07
2018-11-25T15:13:26.501Z,70.63
2018-11-25T15:15:55.056Z,77.30
2018-11-25T15:18:22.040Z,75.87
2018-11-25T15:20:50.602Z,70.63
2018-11-25T15:23:17.823Z,76.50
2018-11-25T15:25:46.737Z,69.97
2018-11-25T15:28:13.661Z,82.90
2018-11-25T15:30:40.769Z,79.00
2018-11-25T15:33:07.785Z,75.57
2018-11-25T15:35:34.969Z,88.07
2018-11-25T15:38:01.949Z,85.20
2018-11-25T15:40:31.338Z,81.23
2018-11-25T15:42:58.403Z,77.47
2018-11-25T15:45:25.761Z,84.97
2018-11-25T15:47:54.705Z,85.07
2018-11-25T15:50:25.052Z,87.00
2018-11-25T15:52:52.266Z,87.23
2018-11-25T15:55:19.494Z,103.43
2018-11-25T15:57:46.459Z,96.47
2018-11-25T16:00:15.607Z,106.20
2018-11-25T16:02:42.635Z,103.00
2018-11-25T16:05:11.115Z,103.37
2018-11-25T16:07:38.069Z,102.63
2018-11-25T16:15:01.998Z,100.60
2018-11-25T16:17:29.048Z,112.10
2018-11-25T16:19:56.157Z,103.20
2018-11-25T16:22:23.847Z,106.57
2018-11-25T16:24:50.878Z,116.67
2018-11-25T16:27:17.970Z,111.60
2018-11-25T16:29:45.040Z,110.67
2018-11-25T16:32:24.066Z,123.27
2018-11-25T16:34:51.294Z,119.13
2018-11-25T16:37:18.517Z,105.77
2018-11-25T16:39:45.637Z,119.10
2018-11-25T16:42:12.790Z,108.33
2018-11-25T16:44:39.923Z,121.53
2018-11-25T16:47:07.054Z,106.93
2018-11-25T16:49:34.368Z,110.63
2018-11-25T16:52:02.307Z,110.20
2018-11-25T16:54:29.361Z,109.73
2018-11-25T16:56:57.125Z,116.43
2018-11-25T16:59:24.752Z,104.00
2018-11-25T17:01:52.068Z,106.77
2018-11-25T17:04:19.132Z,97.23
2018-11-25T17:06:47.965Z,107.90
2018-11-25T17:09:15.049Z,109.13
2018-11-25T17:11:42.745Z,93.77
2018-11-25T17:14:09.905Z,105.20
2018-11-25T17:19:29.050Z,97.67
2018-11-25T17:21:56.085Z,94.37
2018-11-25T17:24:23.279Z,103.20
2018-11-25T17:26:50.383Z,92.03
2018-11-25T17:29:17.561Z,94.80
2018-11-25T17:31:44.720Z,95.07
2018-11-25T17:34:11.820Z,99.10
2018-11-25T17:36:38.900Z,110.20
2018-11-25T17:39:07.646Z,101.10
2018-11-25T17:41:34.834Z,88.47
2018-11-25T17:44:01.904Z,79.20
2018-11-25T17:46:28.972Z,85.10
2018-11-25T17:48:55.992Z,96.80
2018-11-25T17:51:22.989Z,98.17
2018-11-25T17:53:50.143Z,91.47
2018-11-25T17:56:17.643Z,96.40
2018-11-25T17:58:44.758Z,96.40
2018-11-25T18:01:11.861Z,87.43
2018-11-25T18:03:38.894Z,95.83
2018-11-25T18:06:05.963Z,85.43
2018-11-25T18:08:32.973Z,92.77
2018-11-25T18:11:00.029Z,97.10
2018-11-25T18:13:28.653Z,86.53
2018-11-25T18:15:57.324Z,92.87
2018-11-25T18:18:30.747Z,92.90
2018-11-25T18:20:59.848Z,94.30
2018-11-25T18:23:26.930Z,93.53
2018-11-25T18:25:53.961Z,91.37
2018-11-25T18:28:23.032Z,91.23
2018-11-25T18:30:50.025Z,84.03
2018-11-25T18:33:17.101Z,86.03
2018-11-25T18:35:44.134Z,90.30
2018-11-25T18:38:11.178Z,87.73
2018-11-25T18:40:38.242Z,87.23
2018-11-25T18:43:06.085Z,80.50
2018-11-25T18:45:33.137Z,85.33
2018-11-25T18:48:00.819Z,88.60
2018-11-25T18:50:28.251Z,85.53
2018-11-25T18:52:55.911Z,77.50
2018-11-25T18:55:22.141Z,83.97
2018-11-25T18:57:49.303Z,84.60
2018-11-25T19:00:27.307Z,86.47
2018-11-25T19:02:54.457Z,90.07
2018-11-25T19:05:21.649Z,89.73
2018-11-25T19:07:49.589Z,86.57
2018-11-25T19:10:17.925Z,90.97
2018-11-25T19:12:45.347Z,86.90
2018-11-25T19:15:13.790Z,82.37
2018-11-25T19:17:40.801Z,76.33
2018-11-25T19:20:17.672Z,77.67
2018-11-25T19:25:41.818Z,90.57
2018-11-25T19:28:09.751Z,73.97
2018-11-25T19:30:37.582Z,85.73
2018-11-25T19:33:06.575Z,86.97
2018-11-25T19:35:34.097Z,78.30
2018-11-25T19:38:02.041Z,77.50
2018-11-25T19:40:29.106Z,68.63
2018-11-25T19:42:56.270Z,71.03
2018-11-25T19:45:25.594Z,72.70
2018-11-25T19:47:53.479Z,72.00
2018-11-25T19:50:25.149Z,83.30
2018-11-25T19:52:52.160Z,73.47
2018-11-25T19:55:19.293Z,76.83
2018-11-25T19:57:46.337Z,66.50
2018-11-25T20:00:15.262Z,69.20
2018-11-25T20:02:42.556Z,58.27
2018-11-25T20:05:11.106Z,59.27
2018-11-25T20:07:38.466Z,59.60
2018-11-25T20:10:08.077Z,60.07
2018-11-25T20:12:42.496Z,69.20
2018-11-25T20:15:14.855Z,64.70
2018-11-25T20:17:42.119Z,64.03
2018-11-25T20:20:12.429Z,68.73
2018-11-25T20:22:39.834Z,71.73
2018-11-25T20:25:08.169Z,58.30
2018-11-25T20:27:39.943Z,67.20
2018-11-25T20:30:18.810Z,65.27
2018-11-25T20:33:00.702Z,58.87
2018-11-25T20:35:27.789Z,60.00
2018-11-25T20:38:00.583Z,65.83
2018-11-25T20:40:28.721Z,61.40
2018-11-25T20:43:04.490Z,60.97
2018-11-25T20:45:43.712Z,61.83
2018-11-25T20:48:10.983Z,62.33
2018-11-25T20:50:38.014Z,66.67
2018-11-25T20:53:10.954Z,64.83
2018-11-25T20:55:38.713Z,65.43
2018-11-25T20:58:07.164Z,62.13
2018-11-25T21:00:34.355Z,62.63
2018-11-25T21:03:01.443Z,62.60
2018-11-25T21:05:28.460Z,57.93
2018-11-25T21:07:55.596Z,49.30
2018-11-25T21:10:22.913Z,47.20
2018-11-25T21:13:01.047Z,50.30
2018-11-25T21:15:28.713Z,43.87
2018-11-25T21:17:56.547Z,47.27
2018-11-25T21:20:24.587Z,49.13
2018-11-25T21:22:51.773Z,50.30
2018-11-25T21:25:21.188Z,48.30
2018-11-25T21:27:48.287Z,47.73
2018-11-25T21:30:22.262Z,47.80
2018-11-25T21:32:52.710Z,52.13
2018-11-25T21:35:20.139Z,54.40
2018-11-25T21:37:48.434Z,53.13
2018-11-25T21:40:24.335Z,50.90
2018-11-25T21:42:51.442Z,54.17
2018-11-25T21:45:20.057Z,50.50
2018-11-25T21:47:47.532Z,49.50
2018-11-25T21:50:18.688Z,54.37
2018-11-25T21:52:45.971Z,49.33
2018-11-25T21:55:14.083Z,55.27
2018-11-25T22:02:35.855Z,44.53
2018-11-25T22:05:02.946Z,53.50
2018-11-25T22:07:29.955Z,45.00
2018-11-25T22:09:57.611Z,46.33
2018-11-25T22:12:24.637Z,46.43
2018-11-25T22:14:51.799Z,54.83
2018-11-25T22:17:18.875Z,45.73
2018-11-25T22:19:45.881Z,48.83
2018-11-25T22:22:12.965Z,46.57
2018-11-25T22:24:39.920Z,44.30
2018-11-25T22:27:06.910Z,50.73
2018-11-25T22:29:33.992Z,48.70
2018-11-25T22:32:00.973Z,48.87
2018-11-25T22:34:27.932Z,49.60
2018-11-25T22:36:54.906Z,44.70
2018-11-25T22:39:21.895Z,46.00
2018-11-25T22:41:48.963Z,44.97
2018-11-25T22:44:15.948Z,46.90
2018-11-25T22:46:42.956Z,51.57
2018-11-25T22:49:09.946Z,45.77
2018-11-25T22:51:36.913Z,47.07
2018-11-25T22:54:03.862Z,48.63
2018-11-25T22:56:30.801Z,51.63
2018-11-25T22:58:57.803Z,50.47
2018-11-25T23:01:24.757Z,49.70
2018-11-25T23:04:03.205Z,44.53
2018-11-25T23:06:41.785Z,45.90
2018-11-25T23:09:08.792Z,47.47
2018-11-25T23:11:35.808Z,43.63
2018-11-25T23:14:02.769Z,45.53
2018-11-25T23:16:29.709Z,44.63
2018-11-25T23:18:56.669Z,47.10
2018-11-25T23:21:23.664Z,43.67
2018-11-25T23:23:50.649Z,49.47
2018-11-25T23:26:17.612Z,48.00
2018-11-25T23:28:44.585Z,44.30
2018-11-25T23:31:11.505Z,43.17
2018-11-25T23:33:38.484Z,47.77
2018-11-25T23:36:05.430Z,47.17
2018-11-25T23:38:32.386Z,45.70
2018-11-25T23:40:59.383Z,50.13
2018-11-25T23:43:26.659Z,46.87
2018-11-25T23:45:54.671Z,46.00
2018-11-25T23:48:21.655Z,46.20
2018-11-25T23:50:48.857Z,50.03
2018-11-25T23:53:15.783Z,48.77
2018-11-25T23:55:42.739Z,47.67
2018-11-25T23:58:09.711Z,45.67
